sensor_id;sensor_type;location;lat;lon;timestamp;P1;durP1;ratioP1;P2;durP2;ratioP2
44854;SDS011;30591;48.228;16.398;2022-07-30T00:01:43;8.20;;;7.10;;
44854;SDS011;30591;48.228;16.398;2022-07-30T00:04:11;6.63;;;6.03;;
44854;SDS011;30591;48.228;16.398;2022-07-30T00:06:37;7.80;;;6.20;;
44854;SDS011;30591;48.228;16.398;2022-07-30T00:09:05;6.47;;;5.87;;
44854;SDS011;30591;48.228;16.398;2022-07-30T00:11:32;5.73;;;5.23;;
44854;SDS011;30591;48.228;16.398;2022-07-30T00:13:59;6.30;;;5.70;;
44854;SDS011;30591;48.228;16.398;2022-07-30T00:16:26;6.03;;;5.50;;
44854;SDS011;30591;48.228;16.398;2022-07-30T00:18:53;5.20;;;4.70;;
44854;SDS011;30591;48.228;16.398;2022-07-30T00:21:21;5.03;;;4.20;;
44854;SDS011;30591;48.228;16.398;2022-07-30T00:24:04;5.63;;;3.80;;
44854;SDS011;30591;48.228;16.398;2022-07-30T00:26:33;3.77;;;3.37;;
44854;SDS011;30591;48.228;16.398;2022-07-30T00:29:00;3.43;;;3.13;;
44854;SDS011;30591;48.228;16.398;2022-07-30T00:31:27;2.80;;;2.60;;
44854;SDS011;30591;48.228;16.398;2022-07-30T00:33:54;3.10;;;2.80;;
44854;SDS011;30591;48.228;16.398;2022-07-30T00:36:21;3.93;;;2.70;;
44854;SDS011;30591;48.228;16.398;2022-07-30T00:38:48;2.77;;;2.50;;
44854;SDS011;30591;48.228;16.398;2022-07-30T00:41:16;2.80;;;2.30;;
44854;SDS011;30591;48.228;16.398;2022-07-30T00:43:43;2.50;;;2.30;;
44854;SDS011;30591;48.228;16.398;2022-07-30T00:46:10;2.57;;;2.37;;
44854;SDS011;30591;48.228;16.398;2022-07-30T00:48:37;2.70;;;2.50;;
44854;SDS011;30591;48.228;16.398;2022-07-30T00:51:04;2.20;;;2.00;;
44854;SDS011;30591;48.228;16.398;2022-07-30T00:53:32;2.33;;;2.23;;
44854;SDS011;30591;48.228;16.398;2022-07-30T00:55:59;2.27;;;2.03;;
44854;SDS011;30591;48.228;16.398;2022-07-30T00:58:26;2.07;;;1.87;;
44854;SDS011;30591;48.228;16.398;2022-07-30T01:00:54;2.37;;;2.00;;
44854;SDS011;30591;48.228;16.398;2022-07-30T01:03:21;2.77;;;2.40;;
44854;SDS011;30591;48.228;16.398;2022-07-30T01:05:48;2.07;;;1.97;;
44854;SDS011;30591;48.228;16.398;2022-07-30T01:08:16;2.40;;;2.20;;
44854;SDS011;30591;48.228;16.398;2022-07-30T01:10:43;2.10;;;2.00;;
44854;SDS011;30591;48.228;16.398;2022-07-30T01:13:10;2.30;;;2.10;;
44854;SDS011;30591;48.228;16.398;2022-07-30T01:15:38;3.73;;;1.90;;
44854;SDS011;30591;48.228;16.398;2022-07-30T01:18:05;2.10;;;1.90;;
44854;SDS011;30591;48.228;16.398;2022-07-30T01:20:41;2.97;;;2.07;;
44854;SDS011;30591;48.228;16.398;2022-07-30T01:23:20;2.33;;;2.13;;
44854;SDS011;30591;48.228;16.398;2022-07-30T01:28:32;2.70;;;2.37;;
44854;SDS011;30591;48.228;16.398;2022-07-30T01:31:02;3.03;;;2.50;;
44854;SDS011;30591;48.228;16.398;2022-07-30T01:33:30;2.10;;;2.00;;
44854;SDS011;30591;48.228;16.398;2022-07-30T01:36:00;3.13;;;2.10;;
44854;SDS011;30591;48.228;16.398;2022-07-30T01:38:29;2.20;;;2.00;;
44854;SDS011;30591;48.228;16.398;2022-07-30T01:41:00;2.37;;;2.03;;
44854;SDS011;30591;48.228;16.398;2022-07-30T01:43:29;2.00;;;1.90;;
44854;SDS011;30591;48.228;16.398;2022-07-30T01:45:59;2.30;;;2.10;;
44854;SDS011;30591;48.228;16.398;2022-07-30T01:48:30;2.30;;;2.20;;
44854;SDS011;30591;48.228;16.398;2022-07-30T01:51:01;1.80;;;1.70;;
44854;SDS011;30591;48.228;16.398;2022-07-30T01:53:33;2.23;;;2.03;;
44854;SDS011;30591;48.228;16.398;2022-07-30T01:56:03;1.90;;;1.70;;
44854;SDS011;30591;48.228;16.398;2022-07-30T01:58:37;2.10;;;1.90;;
44854;SDS011;30591;48.228;16.398;2022-07-30T02:01:18;1.90;;;1.80;;
44854;SDS011;30591;48.228;16.398;2022-07-30T02:03:45;1.80;;;1.70;;
44854;SDS011;30591;48.228;16.398;2022-07-30T02:06:15;2.00;;;1.80;;
44854;SDS011;30591;48.228;16.398;2022-07-30T02:08:50;1.90;;;1.67;;
44854;SDS011;30591;48.228;16.398;2022-07-30T02:11:25;2.63;;;1.77;;
44854;SDS011;30591;48.228;16.398;2022-07-30T02:14:21;2.00;;;1.90;;
44854;SDS011;30591;48.228;16.398;2022-07-30T02:16:53;3.13;;;1.90;;
44854;SDS011;30591;48.228;16.398;2022-07-30T02:19:29;2.47;;;1.87;;
44854;SDS011;30591;48.228;16.398;2022-07-30T02:22:08;2.13;;;1.70;;
44854;SDS011;30591;48.228;16.398;2022-07-30T02:24:40;2.30;;;2.10;;
44854;SDS011;30591;48.228;16.398;2022-07-30T02:27:10;1.80;;;1.70;;
44854;SDS011;30591;48.228;16.398;2022-07-30T02:29:40;3.07;;;1.73;;
44854;SDS011;30591;48.228;16.398;2022-07-30T02:32:11;5.53;;;2.20;;
44854;SDS011;30591;48.228;16.398;2022-07-30T02:34:42;1.87;;;1.73;;
44854;SDS011;30591;48.228;16.398;2022-07-30T02:37:12;2.27;;;2.07;;
44854;SDS011;30591;48.228;16.398;2022-07-30T02:39:41;3.30;;;2.20;;
44854;SDS011;30591;48.228;16.398;2022-07-30T02:42:09;2.43;;;2.10;;
44854;SDS011;30591;48.228;16.398;2022-07-30T02:44:38;2.50;;;2.30;;
44854;SDS011;30591;48.228;16.398;2022-07-30T02:47:11;2.70;;;2.50;;
44854;SDS011;30591;48.228;16.398;2022-07-30T02:49:39;3.10;;;2.40;;
44854;SDS011;30591;48.228;16.398;2022-07-30T23:54:24;6.87;;;6.17;;
44854;SDS011;30591;48.228;16.398;2022-07-30T23:56:53;5.93;;;5.30;;
44854;SDS011;30591;48.228;16.398;2022-07-30T23:59:21;7.87;;;5.97;;
